Cataratas Del Iguazu International Airport
SARI : rendu visible

Aérodrome :











RETROUVEZ-NOUS SUR...

 
LOGIN :

S'inscrire | Disclaimer

   EN    FR    IT 

 









Légende :    VFR   VFR Marginal   IFR   IFR Intensif   IFR Très Intensif
Visi : 
Plafond : 
>= 8 km
>= 3000ft
5 à 8 km
1000 à 3000 ft
1500m à 5 km
500 à 1000 ft
800 à 1500m
200 à 500 ft
< 800m
< 200 ft
Symboles :   Orages  Brouillard  Fortes neiges  Fortes précipitations  Vent > 20 kt






- Altitude de l'aérodrome : 916 ft
- Code IATA : IGR


SARI - Cataratas Del Iguazu International

DERNIER METAR :
  • 041000Z 18003KT CAVOK 12/10 Q1013

METARs EXPIRÉS :
  • 040900Z 18005KT CAVOK 13/11 Q1013
  • 040800Z 18003KT CAVOK 13/12 Q1013

TAF TAF SARI
Valide du 04 à 06h jusqu'au 05 à 06h UTC


040500Z 0406/0506 18005KT CAVOK TX24/0419Z TN14/0410Z
BECMG 0411/0413 05010KT



MET'MAP, la Météo Aéronautique d'un coup d'oeil ! - Copyright ORBIFLY Décembre 2007 - Disclaimer

ORBIFLY MET'MAP TEAM :

Programmation & Développement : Alexandra Zaïnal
Sur une idée originale de : Baudouin d'Aumeries
Assistance à la programmation : Marc-Olivier Méhu
Soutien technique & logistique : Manuel Goepfert

Contact : metmap@orbifly.com




SOURCES & CREDITS :

   NOAA       Earth
Advisory